sensor_id;sensor_type;location;lat;lon;timestamp;temperature;humidity
63047;DHT22;62025;39.238;9.126;2023-03-24T00:00:49;15.70;71.10
63047;DHT22;62025;39.238;9.126;2023-03-24T00:03:15;15.70;71.10
63047;DHT22;62025;39.238;9.126;2023-03-24T00:05:42;15.60;71.10
63047;DHT22;62025;39.238;9.126;2023-03-24T00:08:09;15.60;71.10
63047;DHT22;62025;39.238;9.126;2023-03-24T00:10:35;15.60;71.00
63047;DHT22;62025;39.238;9.126;2023-03-24T00:13:02;15.60;70.70
63047;DHT22;62025;39.238;9.126;2023-03-24T00:15:29;15.60;70.60
63047;DHT22;62025;39.238;9.126;2023-03-24T00:17:56;15.60;70.30
63047;DHT22;62025;39.238;9.126;2023-03-24T00:20:23;15.50;70.00
63047;DHT22;62025;39.238;9.126;2023-03-24T00:22:52;15.50;70.00
63047;DHT22;62025;39.238;9.126;2023-03-24T00:25:28;15.50;69.90
63047;DHT22;62025;39.238;9.126;2023-03-24T00:28:01;15.40;69.70
63047;DHT22;62025;39.238;9.126;2023-03-24T00:30:30;15.40;69.60
63047;DHT22;62025;39.238;9.126;2023-03-24T00:32:59;15.40;69.50
63047;DHT22;62025;39.238;9.126;2023-03-24T00:35:27;15.40;69.40
63047;DHT22;62025;39.238;9.126;2023-03-24T00:37:53;15.40;69.30
63047;DHT22;62025;39.238;9.126;2023-03-24T00:40:20;15.30;69.40
63047;DHT22;62025;39.238;9.126;2023-03-24T00:42:48;15.30;69.50
63047;DHT22;62025;39.238;9.126;2023-03-24T00:45:19;15.30;69.60
63047;DHT22;62025;39.238;9.126;2023-03-24T00:47:48;15.30;69.80
63047;DHT22;62025;39.238;9.126;2023-03-24T00:50:19;15.30;69.90
63047;DHT22;62025;39.238;9.126;2023-03-24T00:52:46;15.30;69.80
63047;DHT22;62025;39.238;9.126;2023-03-24T00:55:14;15.30;69.60
63047;DHT22;62025;39.238;9.126;2023-03-24T00:57:43;15.20;69.50
63047;DHT22;62025;39.238;9.126;2023-03-24T01:00:18;15.20;69.20
63047;DHT22;62025;39.238;9.126;2023-03-24T01:02:50;15.10;68.90
63047;DHT22;62025;39.238;9.126;2023-03-24T01:05:20;15.10;68.60
63047;DHT22;62025;39.238;9.126;2023-03-24T01:07:48;15.10;68.40
63047;DHT22;62025;39.238;9.126;2023-03-24T01:10:17;15.00;68.20
63047;DHT22;62025;39.238;9.126;2023-03-24T01:12:46;15.00;68.10
63047;DHT22;62025;39.238;9.126;2023-03-24T01:15:18;15.00;68.00
63047;DHT22;62025;39.238;9.126;2023-03-24T01:17:45;15.10;68.00
63047;DHT22;62025;39.238;9.126;2023-03-24T01:20:14;15.00;67.90
63047;DHT22;62025;39.238;9.126;2023-03-24T01:22:42;15.00;68.00
63047;DHT22;62025;39.238;9.126;2023-03-24T01:25:17;15.00;67.90
63047;DHT22;62025;39.238;9.126;2023-03-24T01:27:49;15.00;67.90
63047;DHT22;62025;39.238;9.126;2023-03-24T01:30:20;15.00;68.00
63047;DHT22;62025;39.238;9.126;2023-03-24T01:32:49;15.00;68.10
63047;DHT22;62025;39.238;9.126;2023-03-24T01:35:17;14.90;68.10
63047;DHT22;62025;39.238;9.126;2023-03-24T01:37:45;15.00;68.10
63047;DHT22;62025;39.238;9.126;2023-03-24T01:40:31;15.00;68.30
63047;DHT22;62025;39.238;9.126;2023-03-24T01:42:58;15.00;68.50
63047;DHT22;62025;39.238;9.126;2023-03-24T01:48:48;15.00;68.70
63047;DHT22;62025;39.238;9.126;2023-03-24T01:51:32;15.00;68.90
63047;DHT22;62025;39.238;9.126;2023-03-24T01:56:37;14.90;69.10
63047;DHT22;62025;39.238;9.126;2023-03-24T01:59:13;14.90;69.20
63047;DHT22;62025;39.238;9.126;2023-03-24T02:01:52;14.90;69.20
63047;DHT22;62025;39.238;9.126;2023-03-24T02:04:51;14.90;69.30
63047;DHT22;62025;39.238;9.126;2023-03-24T02:07:32;14.90;69.50
63047;DHT22;62025;39.238;9.126;2023-03-24T02:10:04;14.80;69.60
63047;DHT22;62025;39.238;9.126;2023-03-24T02:12:32;14.80;69.70
63047;DHT22;62025;39.238;9.126;2023-03-24T02:15:02;14.80;69.70
63047;DHT22;62025;39.238;9.126;2023-03-24T02:32:50;14.70;68.70
63047;DHT22;62025;39.238;9.126;2023-03-24T02:35:40;14.70;68.40
63047;DHT22;62025;39.238;9.126;2023-03-24T02:38:38;14.60;68.30
63047;DHT22;62025;39.238;9.126;2023-03-24T02:41:33;14.60;68.10
63047;DHT22;62025;39.238;9.126;2023-03-24T02:44:15;14.60;68.10
63047;DHT22;62025;39.238;9.126;2023-03-24T02:46:53;14.60;68.10
63047;DHT22;62025;39.238;9.126;2023-03-24T02:49:45;14.50;68.10
63047;DHT22;62025;39.238;9.126;2023-03-24T02:55:31;14.40;67.90
63047;DHT22;62025;39.238;9.126;2023-03-24T02:58:07;14.40;67.80
63047;DHT22;62025;39.238;9.126;2023-03-24T03:01:07;14.40;67.80
63047;DHT22;62025;39.238;9.126;2023-03-24T03:04:17;14.40;67.70
63047;DHT22;62025;39.238;9.126;2023-03-24T03:06:52;14.30;67.60
63047;DHT22;62025;39.238;9.126;2023-03-24T03:09:22;14.30;67.60
63047;DHT22;62025;39.238;9.126;2023-03-24T03:11:52;14.30;67.60
63047;DHT22;62025;39.238;9.126;2023-03-24T03:14:47;14.30;67.60
63047;DHT22;62025;39.238;9.126;2023-03-24T03:17:22;14.20;67.60
63047;DHT22;62025;39.238;9.126;2023-03-24T03:20:09;14.20;67.40
63047;DHT22;62025;39.238;9.126;2023-03-24T03:22:49;14.20;67.40
63047;DHT22;62025;39.238;9.126;2023-03-24T03:25:22;14.20;67.40
63047;DHT22;62025;39.238;9.126;2023-03-24T03:27:55;14.10;67.50
63047;DHT22;62025;39.238;9.126;2023-03-24T03:30:30;14.10;67.50
63047;DHT22;62025;39.238;9.126;2023-03-24T03:33:21;14.10;67.50
63047;DHT22;62025;39.238;9.126;2023-03-24T03:36:05;14.10;67.60
63047;DHT22;62025;39.238;9.126;2023-03-24T03:38:55;14.10;67.60
63047;DHT22;62025;39.238;9.126;2023-03-24T03:41:33;14.10;67.60
63047;DHT22;62025;39.238;9.126;2023-03-24T03:44:00;14.10;67.70
63047;DHT22;62025;39.238;9.126;2023-03-24T03:46:26;14.10;67.70
63047;DHT22;62025;39.238;9.126;2023-03-24T03:48:53;14.10;67.80
63047;DHT22;62025;39.238;9.126;2023-03-24T03:51:19;14.00;67.80
63047;DHT22;62025;39.238;9.126;2023-03-24T03:54:00;14.10;67.80
63047;DHT22;62025;39.238;9.126;2023-03-24T03:56:32;14.00;67.90
63047;DHT22;62025;39.238;9.126;2023-03-24T03:59:32;14.00;67.80
63047;DHT22;62025;39.238;9.126;2023-03-24T04:02:27;14.00;67.90
63047;DHT22;62025;39.238;9.126;2023-03-24T04:05:19;14.00;67.80
63047;DHT22;62025;39.238;9.126;2023-03-24T04:08:16;14.00;67.80
63047;DHT22;62025;39.238;9.126;2023-03-24T04:11:31;14.00;67.80
63047;DHT22;62025;39.238;9.126;2023-03-24T04:23:02;13.80;68.10
63047;DHT22;62025;39.238;9.126;2023-03-24T04:28:34;13.80;68.10
63047;DHT22;62025;39.238;9.126;2023-03-24T04:33:54;13.70;68.30
63047;DHT22;62025;39.238;9.126;2023-03-24T04:36:43;13.60;68.70
63047;DHT22;62025;39.238;9.126;2023-03-24T04:39:41;13.60;68.80
63047;DHT22;62025;39.238;9.126;2023-03-24T04:42:24;13.60;68.60
63047;DHT22;62025;39.238;9.126;2023-03-24T04:44:55;13.60;68.40
63047;DHT22;62025;39.238;9.126;2023-03-24T04:47:27;13.60;68.20
63047;DHT22;62025;39.238;9.126;2023-03-24T04:50:08;13.50;68.20
63047;DHT22;62025;39.238;9.126;2023-03-24T04:52:38;13.50;68.30
63047;DHT22;62025;39.238;9.126;2023-03-24T04:55:44;13.50;68.20
63047;DHT22;62025;39.238;9.126;2023-03-24T04:58:01;13.50;68.20
63047;DHT22;62025;39.238;9.126;2023-03-24T05:00:27;13.50;68.20
63047;DHT22;62025;39.238;9.126;2023-03-24T05:02:53;13.40;68.50
63047;DHT22;62025;39.238;9.126;2023-03-24T05:05:24;13.50;68.60
63047;DHT22;62025;39.238;9.126;2023-03-24T05:07:51;13.50;68.60
63047;DHT22;62025;39.238;9.126;2023-03-24T05:10:17;13.50;68.60
63047;DHT22;62025;39.238;9.126;2023-03-24T05:12:49;13.50;68.70
63047;DHT22;62025;39.238;9.126;2023-03-24T05:15:18;13.40;68.80
63047;DHT22;62025;39.238;9.126;2023-03-24T05:17:46;13.40;68.80
63047;DHT22;62025;39.238;9.126;2023-03-24T05:20:13;13.50;68.80
63047;DHT22;62025;39.238;9.126;2023-03-24T05:22:43;13.40;69.00
63047;DHT22;62025;39.238;9.126;2023-03-24T05:25:09;13.50;69.30
63047;DHT22;62025;39.238;9.126;2023-03-24T05:27:36;13.50;69.40
63047;DHT22;62025;39.238;9.126;2023-03-24T05:30:15;13.50;69.70
63047;DHT22;62025;39.238;9.126;2023-03-24T05:32:42;13.60;69.90
63047;DHT22;62025;39.238;9.126;2023-03-24T05:35:08;13.60;70.60
63047;DHT22;62025;39.238;9.126;2023-03-24T05:37:34;13.60;70.60
63047;DHT22;62025;39.238;9.126;2023-03-24T05:40:02;13.70;70.70
63047;DHT22;62025;39.238;9.126;2023-03-24T05:42:44;13.70;70.90
63047;DHT22;62025;39.238;9.126;2023-03-24T05:45:12;13.70;70.90
63047;DHT22;62025;39.238;9.126;2023-03-24T05:47:39;13.80;70.80
63047;DHT22;62025;39.238;9.126;2023-03-24T05:50:06;13.80;70.70
63047;DHT22;62025;39.238;9.126;2023-03-24T05:52:33;13.80;70.50
63047;DHT22;62025;39.238;9.126;2023-03-24T05:55:17;13.80;70.30
63047;DHT22;62025;39.238;9.126;2023-03-24T05:57:47;13.80;70.30
63047;DHT22;62025;39.238;9.126;2023-03-24T06:00:43;13.90;70.70
63047;DHT22;62025;39.238;9.126;2023-03-24T06:03:15;13.90;71.70
63047;DHT22;62025;39.238;9.126;2023-03-24T06:05:58;13.90;71.50
63047;DHT22;62025;39.238;9.126;2023-03-24T06:08:24;14.00;70.90
63047;DHT22;62025;39.238;9.126;2023-03-24T06:10:58;14.00;70.30
63047;DHT22;62025;39.238;9.126;2023-03-24T06:13:30;14.00;70.10
63047;DHT22;62025;39.238;9.126;2023-03-24T06:15:58;13.90;71.20
63047;DHT22;62025;39.238;9.126;2023-03-24T06:18:38;14.00;72.10
63047;DHT22;62025;39.238;9.126;2023-03-24T06:21:18;14.00;73.40
63047;DHT22;62025;39.238;9.126;2023-03-24T06:23:46;14.00;74.60
63047;DHT22;62025;39.238;9.126;2023-03-24T06:26:15;14.20;74.20
63047;DHT22;62025;39.238;9.126;2023-03-24T06:28:55;14.30;73.70
63047;DHT22;62025;39.238;9.126;2023-03-24T06:31:25;14.30;73.60
63047;DHT22;62025;39.238;9.126;2023-03-24T06:33:54;14.30;73.70
63047;DHT22;62025;39.238;9.126;2023-03-24T06:36:20;14.30;73.40
63047;DHT22;62025;39.238;9.126;2023-03-24T06:38:48;14.40;73.40
63047;DHT22;62025;39.238;9.126;2023-03-24T06:41:17;14.40;73.30
63047;DHT22;62025;39.238;9.126;2023-03-24T06:43:45;14.50;73.50
63047;DHT22;62025;39.238;9.126;2023-03-24T06:46:11;14.50;73.30
63047;DHT22;62025;39.238;9.126;2023-03-24T06:48:40;14.60;73.30
63047;DHT22;62025;39.238;9.126;2023-03-24T06:51:07;14.70;73.20
63047;DHT22;62025;39.238;9.126;2023-03-24T06:53:33;14.80;73.30
63047;DHT22;62025;39.238;9.126;2023-03-24T06:55:59;15.00;73.20
63047;DHT22;62025;39.238;9.126;2023-03-24T06:58:33;15.10;73.20
63047;DHT22;62025;39.238;9.126;2023-03-24T07:01:04;15.20;73.10
63047;DHT22;62025;39.238;9.126;2023-03-24T07:03:32;15.20;73.50
63047;DHT22;62025;39.238;9.126;2023-03-24T07:06:30;15.20;74.00
63047;DHT22;62025;39.238;9.126;2023-03-24T07:09:07;15.40;74.10
63047;DHT22;62025;39.238;9.126;2023-03-24T07:11:33;15.40;74.00
63047;DHT22;62025;39.238;9.126;2023-03-24T07:14:01;15.60;74.00
63047;DHT22;62025;39.238;9.126;2023-03-24T07:16:29;15.80;73.00
63047;DHT22;62025;39.238;9.126;2023-03-24T07:19:18;16.10;72.70
63047;DHT22;62025;39.238;9.126;2023-03-24T07:21:49;16.10;72.40
63047;DHT22;62025;39.238;9.126;2023-03-24T07:24:18;16.20;72.40
63047;DHT22;62025;39.238;9.126;2023-03-24T07:26:56;16.20;72.40
63047;DHT22;62025;39.238;9.126;2023-03-24T07:29:23;16.50;72.50
63047;DHT22;62025;39.238;9.126;2023-03-24T07:32:05;16.80;72.10
63047;DHT22;62025;39.238;9.126;2023-03-24T07:34:33;16.90;71.80
63047;DHT22;62025;39.238;9.126;2023-03-24T07:37:02;17.00;72.00
63047;DHT22;62025;39.238;9.126;2023-03-24T07:39:30;17.10;71.70
63047;DHT22;62025;39.238;9.126;2023-03-24T07:41:56;17.20;71.60
63047;DHT22;62025;39.238;9.126;2023-03-24T07:44:31;17.30;71.20
63047;DHT22;62025;39.238;9.126;2023-03-24T07:46:59;17.00;72.00
63047;DHT22;62025;39.238;9.126;2023-03-24T07:49:25;17.00;72.20
63047;DHT22;62025;39.238;9.126;2023-03-24T07:52:02;17.30;71.10
63047;DHT22;62025;39.238;9.126;2023-03-24T07:54:43;17.50;70.60
63047;DHT22;62025;39.238;9.126;2023-03-24T07:57:15;17.60;70.10
63047;DHT22;62025;39.238;9.126;2023-03-24T07:59:41;17.50;70.40
63047;DHT22;62025;39.238;9.126;2023-03-24T08:02:18;17.80;70.10
63047;DHT22;62025;39.238;9.126;2023-03-24T08:05:03;17.90;69.30
63047;DHT22;62025;39.238;9.126;2023-03-24T08:08:08;17.90;69.20
63047;DHT22;62025;39.238;9.126;2023-03-24T08:10:35;18.00;69.10
63047;DHT22;62025;39.238;9.126;2023-03-24T08:13:01;18.20;68.60
63047;DHT22;62025;39.238;9.126;2023-03-24T08:15:28;18.30;68.40
63047;DHT22;62025;39.238;9.126;2023-03-24T08:17:54;18.40;68.10
63047;DHT22;62025;39.238;9.126;2023-03-24T08:20:21;18.40;67.80
63047;DHT22;62025;39.238;9.126;2023-03-24T08:22:49;18.60;67.30
63047;DHT22;62025;39.238;9.126;2023-03-24T08:25:21;18.80;66.70
63047;DHT22;62025;39.238;9.126;2023-03-24T08:27:48;18.70;66.80
63047;DHT22;62025;39.238;9.126;2023-03-24T08:30:19;18.70;67.00
63047;DHT22;62025;39.238;9.126;2023-03-24T08:32:52;18.60;66.90
63047;DHT22;62025;39.238;9.126;2023-03-24T08:35:34;18.90;66.20
63047;DHT22;62025;39.238;9.126;2023-03-24T08:38:04;19.00;65.80
63047;DHT22;62025;39.238;9.126;2023-03-24T08:40:30;18.90;65.60
63047;DHT22;62025;39.238;9.126;2023-03-24T08:43:01;19.10;65.80
63047;DHT22;62025;39.238;9.126;2023-03-24T08:45:30;19.30;65.10
63047;DHT22;62025;39.238;9.126;2023-03-24T08:48:00;19.60;64.20
63047;DHT22;62025;39.238;9.126;2023-03-24T08:50:31;19.50;64.00
63047;DHT22;62025;39.238;9.126;2023-03-24T08:53:00;19.60;63.70
63047;DHT22;62025;39.238;9.126;2023-03-24T08:55:26;19.70;63.30
63047;DHT22;62025;39.238;9.126;2023-03-24T08:57:52;19.90;63.10
63047;DHT22;62025;39.238;9.126;2023-03-24T09:00:19;20.10;62.10
63047;DHT22;62025;39.238;9.126;2023-03-24T09:02:49;20.20;61.70
63047;DHT22;62025;39.238;9.126;2023-03-24T09:05:17;19.60;63.20
63047;DHT22;62025;39.238;9.126;2023-03-24T09:07:48;19.70;63.20
63047;DHT22;62025;39.238;9.126;2023-03-24T09:10:15;19.80;62.80
63047;DHT22;62025;39.238;9.126;2023-03-24T09:12:42;20.10;62.20
63047;DHT22;62025;39.238;9.126;2023-03-24T09:15:10;20.00;61.20
63047;DHT22;62025;39.238;9.126;2023-03-24T09:17:38;19.90;61.90
63047;DHT22;62025;39.238;9.126;2023-03-24T09:20:07;19.90;61.60
63047;DHT22;62025;39.238;9.126;2023-03-24T09:22:38;19.90;62.70
63047;DHT22;62025;39.238;9.126;2023-03-24T09:25:06;19.90;62.40
63047;DHT22;62025;39.238;9.126;2023-03-24T09:27:33;19.90;62.90
63047;DHT22;62025;39.238;9.126;2023-03-24T09:29:59;20.00;62.50
63047;DHT22;62025;39.238;9.126;2023-03-24T09:32:25;19.90;63.00
63047;DHT22;62025;39.238;9.126;2023-03-24T09:34:51;20.00;61.80
63047;DHT22;62025;39.238;9.126;2023-03-24T09:37:17;20.30;60.90
63047;DHT22;62025;39.238;9.126;2023-03-24T09:39:43;20.20;60.90
63047;DHT22;62025;39.238;9.126;2023-03-24T09:42:23;20.00;61.60
63047;DHT22;62025;39.238;9.126;2023-03-24T09:44:56;20.10;61.80
63047;DHT22;62025;39.238;9.126;2023-03-24T09:50:06;20.30;61.20
63047;DHT22;62025;39.238;9.126;2023-03-24T09:52:38;20.20;59.80
63047;DHT22;62025;39.238;9.126;2023-03-24T09:55:12;20.40;60.60
63047;DHT22;62025;39.238;9.126;2023-03-24T09:57:44;20.30;61.10
63047;DHT22;62025;39.238;9.126;2023-03-24T10:02:46;20.30;61.50
63047;DHT22;62025;39.238;9.126;2023-03-24T10:05:19;20.10;62.10
63047;DHT22;62025;39.238;9.126;2023-03-24T10:08:41;20.10;62.60
63047;DHT22;62025;39.238;9.126;2023-03-24T10:11:06;20.30;62.60
63047;DHT22;62025;39.238;9.126;2023-03-24T10:25:31;20.50;60.60
63047;DHT22;62025;39.238;9.126;2023-03-24T10:28:55;20.30;62.10
63047;DHT22;62025;39.238;9.126;2023-03-24T10:31:04;20.10;62.30
63047;DHT22;62025;39.238;9.126;2023-03-24T10:33:39;20.30;62.40
63047;DHT22;62025;39.238;9.126;2023-03-24T10:36:14;20.30;62.40
63047;DHT22;62025;39.238;9.126;2023-03-24T10:38:43;20.10;63.10
63047;DHT22;62025;39.238;9.126;2023-03-24T10:41:17;20.20;62.10
63047;DHT22;62025;39.238;9.126;2023-03-24T10:43:44;19.90;62.70
63047;DHT22;62025;39.238;9.126;2023-03-24T10:46:23;19.80;64.00
63047;DHT22;62025;39.238;9.126;2023-03-24T10:49:05;19.80;63.80
63047;DHT22;62025;39.238;9.126;2023-03-24T10:51:50;19.50;64.70
63047;DHT22;62025;39.238;9.126;2023-03-24T10:57:13;19.70;64.60
63047;DHT22;62025;39.238;9.126;2023-03-24T11:00:05;19.50;64.50
63047;DHT22;62025;39.238;9.126;2023-03-24T11:02:40;19.40;65.50
63047;DHT22;62025;39.238;9.126;2023-03-24T11:05:16;19.40;65.50
63047;DHT22;62025;39.238;9.126;2023-03-24T11:07:45;19.30;66.40
63047;DHT22;62025;39.238;9.126;2023-03-24T11:10:15;19.20;66.70
63047;DHT22;62025;39.238;9.126;2023-03-24T11:15:25;19.30;65.90
63047;DHT22;62025;39.238;9.126;2023-03-24T11:20:59;19.10;66.50
63047;DHT22;62025;39.238;9.126;2023-03-24T11:23:33;19.10;65.80
63047;DHT22;62025;39.238;9.126;2023-03-24T11:28:39;19.00;66.20
63047;DHT22;62025;39.238;9.126;2023-03-24T11:31:31;19.10;65.20
63047;DHT22;62025;39.238;9.126;2023-03-24T11:36:52;18.90;66.40
63047;DHT22;62025;39.238;9.126;2023-03-24T11:39:25;18.80;66.20
63047;DHT22;62025;39.238;9.126;2023-03-24T11:42:03;18.90;66.20
63047;DHT22;62025;39.238;9.126;2023-03-24T11:44:43;18.90;66.00
63047;DHT22;62025;39.238;9.126;2023-03-24T11:47:30;18.70;65.80
63047;DHT22;62025;39.238;9.126;2023-03-24T11:50:16;18.80;65.70
63047;DHT22;62025;39.238;9.126;2023-03-24T11:52:59;18.70;66.20
63047;DHT22;62025;39.238;9.126;2023-03-24T11:58:40;18.50;67.70
63047;DHT22;62025;39.238;9.126;2023-03-24T12:01:17;18.60;67.60
63047;DHT22;62025;39.238;9.126;2023-03-24T12:12:39;18.30;67.70
63047;DHT22;62025;39.238;9.126;2023-03-24T12:23:34;18.40;69.40
63047;DHT22;62025;39.238;9.126;2023-03-24T12:26:26;18.20;69.00
63047;DHT22;62025;39.238;9.126;2023-03-24T12:32:48;18.20;70.30
63047;DHT22;62025;39.238;9.126;2023-03-24T12:35:41;18.10;70.00
63047;DHT22;62025;39.238;9.126;2023-03-24T12:38:45;18.10;69.90
63047;DHT22;62025;39.238;9.126;2023-03-24T12:47:21;18.20;69.30
63047;DHT22;62025;39.238;9.126;2023-03-24T12:53:13;18.30;70.00
63047;DHT22;62025;39.238;9.126;2023-03-24T12:58:44;18.10;68.60
63047;DHT22;62025;39.238;9.126;2023-03-24T13:01:19;18.30;68.50
63047;DHT22;62025;39.238;9.126;2023-03-24T13:07:10;18.40;69.00
63047;DHT22;62025;39.238;9.126;2023-03-24T13:12:37;18.30;69.60
63047;DHT22;62025;39.238;9.126;2023-03-24T13:15:12;18.40;68.60
63047;DHT22;62025;39.238;9.126;2023-03-24T13:26:06;18.30;68.70
63047;DHT22;62025;39.238;9.126;2023-03-24T13:31:38;18.30;68.60
63047;DHT22;62025;39.238;9.126;2023-03-24T13:34:41;18.30;68.90
63047;DHT22;62025;39.238;9.126;2023-03-24T13:37:33;18.20;66.40
63047;DHT22;62025;39.238;9.126;2023-03-24T13:40:09;18.20;66.90
63047;DHT22;62025;39.238;9.126;2023-03-24T13:42:55;18.30;67.10
63047;DHT22;62025;39.238;9.126;2023-03-24T13:45:28;18.30;65.60
63047;DHT22;62025;39.238;9.126;2023-03-24T13:50:57;18.30;65.70
63047;DHT22;62025;39.238;9.126;2023-03-24T13:53:43;18.40;64.40
63047;DHT22;62025;39.238;9.126;2023-03-24T13:56:11;18.40;63.50
63047;DHT22;62025;39.238;9.126;2023-03-24T13:59:23;18.40;62.00
63047;DHT22;62025;39.238;9.126;2023-03-24T14:02:39;18.30;60.40
63047;DHT22;62025;39.238;9.126;2023-03-24T14:05:28;18.40;62.40
63047;DHT22;62025;39.238;9.126;2023-03-24T14:08:10;18.40;57.90
63047;DHT22;62025;39.238;9.126;2023-03-24T14:10:58;18.40;59.10
63047;DHT22;62025;39.238;9.126;2023-03-24T14:13:36;18.40;61.10
63047;DHT22;62025;39.238;9.126;2023-03-24T14:16:34;18.40;60.70
63047;DHT22;62025;39.238;9.126;2023-03-24T14:19:30;18.40;59.50
63047;DHT22;62025;39.238;9.126;2023-03-24T14:24:29;18.40;57.50
63047;DHT22;62025;39.238;9.126;2023-03-24T14:26:57;18.50;58.60
63047;DHT22;62025;39.238;9.126;2023-03-24T14:32:02;18.50;57.20
63047;DHT22;62025;39.238;9.126;2023-03-24T14:34:29;18.40;59.10
63047;DHT22;62025;39.238;9.126;2023-03-24T14:37:00;18.40;59.50
63047;DHT22;62025;39.238;9.126;2023-03-24T14:39:41;18.50;59.10
63047;DHT22;62025;39.238;9.126;2023-03-24T14:48:00;18.40;60.50
63047;DHT22;62025;39.238;9.126;2023-03-24T14:50:28;18.40;59.90
63047;DHT22;62025;39.238;9.126;2023-03-24T14:52:59;18.40;62.80
63047;DHT22;62025;39.238;9.126;2023-03-24T14:55:28;18.40;63.10
63047;DHT22;62025;39.238;9.126;2023-03-24T14:58:17;18.40;62.70
63047;DHT22;62025;39.238;9.126;2023-03-24T15:00:50;18.40;61.40
63047;DHT22;62025;39.238;9.126;2023-03-24T15:03:42;18.30;60.50
63047;DHT22;62025;39.238;9.126;2023-03-24T15:06:17;18.30;62.30
63047;DHT22;62025;39.238;9.126;2023-03-24T15:08:55;18.30;63.50
63047;DHT22;62025;39.238;9.126;2023-03-24T15:11:37;18.30;64.00
63047;DHT22;62025;39.238;9.126;2023-03-24T15:14:06;18.30;64.20
63047;DHT22;62025;39.238;9.126;2023-03-24T15:16:39;18.30;64.50
63047;DHT22;62025;39.238;9.126;2023-03-24T15:19:19;18.30;64.20
63047;DHT22;62025;39.238;9.126;2023-03-24T15:21:58;18.40;64.80
63047;DHT22;62025;39.238;9.126;2023-03-24T15:24:28;18.30;65.40
63047;DHT22;62025;39.238;9.126;2023-03-24T15:29:39;18.30;65.20
63047;DHT22;62025;39.238;9.126;2023-03-24T15:32:14;18.20;65.50
63047;DHT22;62025;39.238;9.126;2023-03-24T15:34:49;18.10;66.00
63047;DHT22;62025;39.238;9.126;2023-03-24T15:37:37;18.20;66.40
63047;DHT22;62025;39.238;9.126;2023-03-24T15:40:29;18.20;66.40
63047;DHT22;62025;39.238;9.126;2023-03-24T15:42:59;18.00;66.60
63047;DHT22;62025;39.238;9.126;2023-03-24T15:45:30;18.00;66.80
63047;DHT22;62025;39.238;9.126;2023-03-24T15:48:06;18.20;66.70
63047;DHT22;62025;39.238;9.126;2023-03-24T15:50:39;18.10;67.20
63047;DHT22;62025;39.238;9.126;2023-03-24T15:55:45;18.10;63.40
63047;DHT22;62025;39.238;9.126;2023-03-24T15:58:28;17.90;62.70
63047;DHT22;62025;39.238;9.126;2023-03-24T16:01:01;18.00;62.80
63047;DHT22;62025;39.238;9.126;2023-03-24T16:03:31;18.10;63.70
63047;DHT22;62025;39.238;9.126;2023-03-24T16:05:58;17.80;65.50
63047;DHT22;62025;39.238;9.126;2023-03-24T16:08:32;17.90;65.60
63047;DHT22;62025;39.238;9.126;2023-03-24T16:11:11;17.90;66.50
63047;DHT22;62025;39.238;9.126;2023-03-24T16:13:40;17.90;67.30
63047;DHT22;62025;39.238;9.126;2023-03-24T16:18:45;18.00;69.30
63047;DHT22;62025;39.238;9.126;2023-03-24T16:23:43;17.90;71.50
63047;DHT22;62025;39.238;9.126;2023-03-24T16:28:41;17.80;73.00
63047;DHT22;62025;39.238;9.126;2023-03-24T16:31:17;17.80;74.70
63047;DHT22;62025;39.238;9.126;2023-03-24T16:33:47;17.60;75.10
63047;DHT22;62025;39.238;9.126;2023-03-24T16:36:15;17.70;75.00
63047;DHT22;62025;39.238;9.126;2023-03-24T16:38:47;17.60;75.20
63047;DHT22;62025;39.238;9.126;2023-03-24T16:41:14;17.80;74.90
63047;DHT22;62025;39.238;9.126;2023-03-24T16:43:42;17.70;75.00
63047;DHT22;62025;39.238;9.126;2023-03-24T16:46:35;17.70;75.40
63047;DHT22;62025;39.238;9.126;2023-03-24T16:49:04;17.70;75.20
63047;DHT22;62025;39.238;9.126;2023-03-24T16:51:31;17.70;75.50
63047;DHT22;62025;39.238;9.126;2023-03-24T16:53:57;17.70;75.60
63047;DHT22;62025;39.238;9.126;2023-03-24T16:56:24;17.60;76.00
63047;DHT22;62025;39.238;9.126;2023-03-24T16:58:51;17.60;76.00
63047;DHT22;62025;39.238;9.126;2023-03-24T17:01:31;17.40;74.90
63047;DHT22;62025;39.238;9.126;2023-03-24T17:04:03;17.50;74.70
63047;DHT22;62025;39.238;9.126;2023-03-24T17:06:51;17.60;74.30
63047;DHT22;62025;39.238;9.126;2023-03-24T17:09:19;17.60;75.20
63047;DHT22;62025;39.238;9.126;2023-03-24T17:11:48;17.50;76.30
63047;DHT22;62025;39.238;9.126;2023-03-24T17:14:16;17.40;77.10
63047;DHT22;62025;39.238;9.126;2023-03-24T17:16:44;17.40;77.20
63047;DHT22;62025;39.238;9.126;2023-03-24T17:19:14;17.40;77.40
63047;DHT22;62025;39.238;9.126;2023-03-24T17:22:02;17.30;77.50
63047;DHT22;62025;39.238;9.126;2023-03-24T17:24:34;17.30;77.70
63047;DHT22;62025;39.238;9.126;2023-03-24T17:27:01;17.20;78.40
63047;DHT22;62025;39.238;9.126;2023-03-24T17:29:28;17.10;78.80
63047;DHT22;62025;39.238;9.126;2023-03-24T17:31:54;17.20;78.70
63047;DHT22;62025;39.238;9.126;2023-03-24T17:34:20;17.10;79.10
63047;DHT22;62025;39.238;9.126;2023-03-24T17:36:46;17.10;79.30
63047;DHT22;62025;39.238;9.126;2023-03-24T17:39:15;17.10;79.50
63047;DHT22;62025;39.238;9.126;2023-03-24T17:41:42;17.10;79.80
63047;DHT22;62025;39.238;9.126;2023-03-24T17:44:08;17.00;80.10
63047;DHT22;62025;39.238;9.126;2023-03-24T17:46:34;17.10;79.50
63047;DHT22;62025;39.238;9.126;2023-03-24T17:49:00;17.20;79.20
63047;DHT22;62025;39.238;9.126;2023-03-24T17:51:27;17.30;79.10
63047;DHT22;62025;39.238;9.126;2023-03-24T17:53:53;17.30;79.00
63047;DHT22;62025;39.238;9.126;2023-03-24T17:56:20;17.20;79.40
63047;DHT22;62025;39.238;9.126;2023-03-24T17:58:46;17.20;79.70
63047;DHT22;62025;39.238;9.126;2023-03-24T18:01:13;17.20;79.50
63047;DHT22;62025;39.238;9.126;2023-03-24T18:03:43;17.30;79.40
63047;DHT22;62025;39.238;9.126;2023-03-24T18:06:11;17.20;79.40
63047;DHT22;62025;39.238;9.126;2023-03-24T18:08:37;17.10;79.80
63047;DHT22;62025;39.238;9.126;2023-03-24T18:11:06;17.00;80.00
63047;DHT22;62025;39.238;9.126;2023-03-24T18:13:34;17.10;79.90
63047;DHT22;62025;39.238;9.126;2023-03-24T18:16:02;17.00;80.00
63047;DHT22;62025;39.238;9.126;2023-03-24T18:18:32;17.00;80.50
63047;DHT22;62025;39.238;9.126;2023-03-24T18:20:58;17.00;80.40
63047;DHT22;62025;39.238;9.126;2023-03-24T18:23:25;17.00;80.50
63047;DHT22;62025;39.238;9.126;2023-03-24T18:26:05;17.00;80.50
63047;DHT22;62025;39.238;9.126;2023-03-24T18:28:36;17.00;80.30
63047;DHT22;62025;39.238;9.126;2023-03-24T18:31:14;17.10;80.10
63047;DHT22;62025;39.238;9.126;2023-03-24T18:33:43;17.00;80.10
63047;DHT22;62025;39.238;9.126;2023-03-24T18:36:11;17.10;80.20
63047;DHT22;62025;39.238;9.126;2023-03-24T18:38:41;17.00;80.30
63047;DHT22;62025;39.238;9.126;2023-03-24T18:41:09;17.00;80.30
63047;DHT22;62025;39.238;9.126;2023-03-24T18:43:37;17.00;80.60